createdAt,value
2017-10-10T00:02:02.769Z,23.70
2017-10-10T00:04:30.385Z,18.85
2017-10-10T00:06:57.999Z,23.12
2017-10-10T00:09:25.613Z,19.65
2017-10-10T00:11:53.177Z,17.65
2017-10-10T00:14:21.615Z,24.40
2017-10-10T00:16:49.223Z,20.23
2017-10-10T00:19:17.603Z,15.23
2017-10-10T00:21:45.989Z,15.52
2017-10-10T00:24:14.385Z,22.77
2017-10-10T00:26:42.035Z,18.10
2017-10-10T00:29:09.650Z,18.50
2017-10-10T00:31:37.338Z,17.17
2017-10-10T00:34:04.969Z,30.45
2017-10-10T00:36:32.585Z,19.92
2017-10-10T00:39:00.199Z,24.10
2017-10-10T00:41:27.827Z,29.95
2017-10-10T00:43:55.437Z,28.75
2017-10-10T00:46:23.049Z,24.80
2017-10-10T00:48:50.666Z,31.67
2017-10-10T00:51:18.274Z,24.15
2017-10-10T00:53:45.902Z,24.08
2017-10-10T00:56:13.541Z,22.27
2017-10-10T00:58:41.178Z,22.58
2017-10-10T01:01:08.825Z,22.35
2017-10-10T01:03:36.476Z,29.80
2017-10-10T01:06:04.087Z,28.75
2017-10-10T01:08:31.714Z,27.13
2017-10-10T01:10:59.378Z,21.23
2017-10-10T01:13:27.023Z,32.42
2017-10-10T01:15:54.654Z,22.83
2017-10-10T01:18:22.996Z,23.70
2017-10-10T01:20:50.643Z,23.80
2017-10-10T01:23:18.271Z,18.62
2017-10-10T01:25:45.898Z,27.87
2017-10-10T01:28:13.494Z,20.42
2017-10-10T01:30:41.139Z,25.17
2017-10-10T01:33:08.774Z,25.20
2017-10-10T01:35:36.374Z,24.17
2017-10-10T01:38:04.760Z,27.00
2017-10-10T01:40:32.403Z,20.58
2017-10-10T01:43:00.797Z,16.58
2017-10-10T01:45:28.410Z,21.35
2017-10-10T01:47:56.024Z,19.70
2017-10-10T01:50:23.614Z,18.42
2017-10-10T01:52:51.196Z,30.50
2017-10-10T01:55:18.810Z,27.73
2017-10-10T01:57:46.422Z,24.17
2017-10-10T02:00:14.008Z,23.85
2017-10-10T02:02:41.642Z,26.90
2017-10-10T02:05:09.257Z,30.70
2017-10-10T02:07:36.870Z,21.58
2017-10-10T02:10:04.501Z,25.08
2017-10-10T02:12:32.108Z,25.95
2017-10-10T02:14:59.724Z,25.83
2017-10-10T02:17:27.382Z,25.05
2017-10-10T02:19:55.013Z,24.27
2017-10-10T02:22:22.624Z,24.15
2017-10-10T02:24:50.235Z,23.80
2017-10-10T02:27:17.859Z,21.60
2017-10-10T02:29:45.470Z,24.30
2017-10-10T02:32:13.079Z,22.67
2017-10-10T02:34:40.694Z,28.20
2017-10-10T02:37:08.302Z,28.02
2017-10-10T02:39:35.914Z,20.58
2017-10-10T02:42:03.539Z,25.70
2017-10-10T02:44:31.118Z,24.70
2017-10-10T02:46:59.457Z,27.65
2017-10-10T02:49:27.028Z,30.27
2017-10-10T02:51:54.653Z,27.75
2017-10-10T02:54:22.278Z,27.75
2017-10-10T02:56:49.900Z,28.52
2017-10-10T02:59:17.523Z,30.42
2017-10-10T03:01:45.134Z,27.08
2017-10-10T03:04:12.705Z,30.73
2017-10-10T03:06:40.354Z,29.83
2017-10-10T03:09:07.963Z,27.75
2017-10-10T03:11:35.602Z,30.85
2017-10-10T03:14:03.979Z,23.80
2017-10-10T03:16:32.314Z,25.37
2017-10-10T03:18:59.883Z,26.20
2017-10-10T03:21:27.461Z,25.77
2017-10-10T03:23:55.095Z,26.48
2017-10-10T03:26:22.710Z,24.63
2017-10-10T03:28:51.195Z,30.25
2017-10-10T03:31:18.803Z,27.62
2017-10-10T03:33:46.414Z,28.48
2017-10-10T03:36:14.073Z,26.87
2017-10-10T03:38:41.680Z,25.95
2017-10-10T03:41:09.258Z,29.83
2017-10-10T03:43:36.871Z,26.90
2017-10-10T03:46:04.506Z,26.42
2017-10-10T03:48:32.891Z,31.25
2017-10-10T03:51:00.505Z,27.98
2017-10-10T03:53:28.162Z,28.23
2017-10-10T03:55:55.772Z,29.05
2017-10-10T03:58:23.383Z,28.38
2017-10-10T04:00:51.014Z,28.92
2017-10-10T04:03:18.674Z,24.87
2017-10-10T04:05:46.248Z,27.20
2017-10-10T04:08:13.863Z,24.00
2017-10-10T04:10:41.492Z,24.58
2017-10-10T04:13:09.104Z,31.60
2017-10-10T04:15:37.481Z,29.60
2017-10-10T04:18:05.056Z,32.90
2017-10-10T04:20:32.669Z,27.17
2017-10-10T04:23:00.288Z,32.88
2017-10-10T04:25:27.935Z,30.40
2017-10-10T04:27:55.542Z,31.95
2017-10-10T04:30:23.197Z,31.77
2017-10-10T04:32:50.808Z,34.75
2017-10-10T04:35:18.418Z,34.78
2017-10-10T04:37:45.993Z,29.65
2017-10-10T04:40:13.598Z,37.45
2017-10-10T04:42:41.225Z,33.30
2017-10-10T04:45:08.796Z,34.40
2017-10-10T04:47:36.408Z,28.92
2017-10-10T04:50:04.023Z,36.58
2017-10-10T04:52:32.358Z,33.95
2017-10-10T04:54:59.968Z,30.73
2017-10-10T04:57:27.590Z,33.78
2017-10-10T04:59:55.215Z,35.25
2017-10-10T05:02:22.826Z,32.55
2017-10-10T05:04:50.444Z,36.40
2017-10-10T05:07:18.013Z,29.80
2017-10-10T05:09:45.627Z,31.20
2017-10-10T05:12:13.248Z,30.05
2017-10-10T05:14:40.858Z,26.12
2017-10-10T05:17:08.534Z,23.98
2017-10-10T05:19:36.142Z,25.65
2017-10-10T05:22:03.712Z,24.08
2017-10-10T05:24:31.331Z,26.85
2017-10-10T05:26:58.903Z,27.85
2017-10-10T05:29:26.478Z,23.17
2017-10-10T05:31:57.837Z,26.40
2017-10-10T05:34:25.644Z,25.90
2017-10-10T05:36:53.980Z,24.77
2017-10-10T05:39:21.568Z,21.12
2017-10-10T05:41:49.189Z,23.73
2017-10-10T05:44:16.799Z,22.27
2017-10-10T05:46:44.417Z,23.90
2017-10-10T05:49:12.090Z,23.33
2017-10-10T05:51:39.659Z,19.48
2017-10-10T05:54:07.270Z,18.52
2017-10-10T05:56:34.878Z,14.35
2017-10-10T05:59:02.452Z,16.12
2017-10-10T06:01:30.061Z,16.90
2017-10-10T06:03:57.679Z,14.93
2017-10-10T06:06:25.766Z,17.80
2017-10-10T06:08:53.371Z,15.63
2017-10-10T06:11:20.983Z,14.30
2017-10-10T06:13:48.597Z,12.57
2017-10-10T06:16:16.226Z,14.13
2017-10-10T06:18:43.786Z,20.25
2017-10-10T06:21:11.450Z,14.27
2017-10-10T06:23:39.110Z,13.77
2017-10-10T06:26:06.681Z,10.35
2017-10-10T06:28:34.300Z,10.70
2017-10-10T06:31:02.680Z,13.10
2017-10-10T06:33:30.311Z,9.82
2017-10-10T06:35:57.915Z,12.55
2017-10-10T06:38:26.290Z,10.93
2017-10-10T06:40:54.720Z,9.25
2017-10-10T06:43:22.406Z,11.57
2017-10-10T06:45:50.573Z,9.15
2017-10-10T06:48:19.660Z,9.02
2017-10-10T06:50:47.583Z,8.48
2017-10-10T06:53:15.196Z,11.57
2017-10-10T06:55:42.812Z,11.38
2017-10-10T06:58:10.416Z,8.48
2017-10-10T07:00:38.021Z,13.55
2017-10-10T07:03:07.813Z,8.75
2017-10-10T07:05:35.555Z,7.72
2017-10-10T07:08:03.929Z,7.20
2017-10-10T07:10:31.492Z,6.25
2017-10-10T07:12:59.098Z,9.18
2017-10-10T07:15:26.667Z,6.85
2017-10-10T07:17:54.314Z,5.45
2017-10-10T07:20:21.922Z,5.70
2017-10-10T07:22:49.519Z,5.85
2017-10-10T07:25:17.123Z,7.82
2017-10-10T07:27:45.501Z,5.00
2017-10-10T07:30:13.295Z,4.90
2017-10-10T07:32:41.031Z,5.57
2017-10-10T07:35:08.651Z,6.20
2017-10-10T07:37:37.599Z,7.80
2017-10-10T07:40:05.207Z,9.13
2017-10-10T07:42:32.817Z,7.62
2017-10-10T07:45:00.437Z,7.50
2017-10-10T07:47:28.059Z,6.68
2017-10-10T07:49:55.910Z,4.53
2017-10-10T07:52:23.534Z,5.18
2017-10-10T07:54:51.106Z,5.75
2017-10-10T07:57:18.706Z,5.82
2017-10-10T07:59:46.422Z,4.45
2017-10-10T08:02:14.068Z,4.15
2017-10-10T08:04:41.766Z,5.75
2017-10-10T08:07:09.492Z,6.47
2017-10-10T08:09:37.979Z,30.37
2017-10-10T08:12:06.402Z,6.70
2017-10-10T08:14:34.012Z,7.07
2017-10-10T08:17:01.583Z,11.68
2017-10-10T08:19:30.020Z,12.57
2017-10-10T08:21:57.642Z,10.48
2017-10-10T08:24:25.215Z,46.28
2017-10-10T08:26:52.842Z,10.75
2017-10-10T08:29:21.223Z,10.50
2017-10-10T08:31:49.617Z,48.67
2017-10-10T08:34:17.227Z,10.25
2017-10-10T08:36:44.851Z,11.80
2017-10-10T08:39:12.467Z,5.75
2017-10-10T08:41:40.210Z,4.93
2017-10-10T08:44:07.801Z,13.30
2017-10-10T08:46:35.414Z,6.75
2017-10-10T08:49:03.014Z,4.05
2017-10-10T08:51:30.625Z,5.65
2017-10-10T08:53:58.242Z,8.55
2017-10-10T08:56:26.030Z,4.03
2017-10-10T08:58:54.415Z,6.45
2017-10-10T09:01:22.028Z,3.92
2017-10-10T09:03:49.638Z,5.25
2017-10-10T09:06:17.253Z,4.60
2017-10-10T09:08:44.859Z,8.48
2017-10-10T09:11:12.473Z,5.07
2017-10-10T09:13:40.082Z,5.82
2017-10-10T09:16:07.727Z,4.87
2017-10-10T09:18:35.339Z,4.93
2017-10-10T09:21:02.943Z,9.52
2017-10-10T09:23:30.570Z,10.00
2017-10-10T09:25:58.184Z,3.58
2017-10-10T09:28:25.799Z,3.85
2017-10-10T09:30:53.408Z,4.53
2017-10-10T09:33:21.023Z,2.87
2017-10-10T09:35:48.631Z,2.75
2017-10-10T09:38:16.202Z,3.40
2017-10-10T09:40:43.807Z,3.10
2017-10-10T09:43:11.377Z,3.75
2017-10-10T09:45:39.023Z,4.82
2017-10-10T09:48:06.646Z,4.30
2017-10-10T09:50:34.226Z,3.92
2017-10-10T09:53:01.837Z,6.65
2017-10-10T09:55:30.214Z,5.68
2017-10-10T09:57:58.595Z,8.32
2017-10-10T10:00:26.974Z,8.30
2017-10-10T10:02:55.353Z,15.05
2017-10-10T10:05:23.739Z,9.25
2017-10-10T10:07:52.115Z,8.30
2017-10-10T10:10:20.499Z,22.73
2017-10-10T10:12:48.876Z,14.02
2017-10-10T10:15:17.258Z,15.27
2017-10-10T10:17:45.636Z,10.57
2017-10-10T10:20:14.020Z,11.80
2017-10-10T10:22:42.402Z,10.77
2017-10-10T10:25:10.072Z,11.20
2017-10-10T10:27:37.651Z,12.82
2017-10-10T10:30:05.258Z,14.93
2017-10-10T10:32:32.928Z,15.18
2017-10-10T10:35:00.538Z,12.35
2017-10-10T10:37:28.165Z,11.15
2017-10-10T10:39:55.783Z,11.02
2017-10-10T10:42:23.412Z,13.95
2017-10-10T10:44:51.032Z,14.35
2017-10-10T10:47:18.668Z,13.68
2017-10-10T10:49:46.251Z,15.10
2017-10-10T10:52:13.866Z,14.45
2017-10-10T10:54:41.482Z,19.67
2017-10-10T10:57:09.862Z,15.55
2017-10-10T10:59:38.240Z,24.67
2017-10-10T11:02:06.670Z,18.65
2017-10-10T11:04:34.281Z,18.42
2017-10-10T11:07:01.898Z,20.37
2017-10-10T11:09:29.515Z,22.23
2017-10-10T11:11:57.151Z,22.30
2017-10-10T11:14:24.771Z,21.55
2017-10-10T11:16:53.176Z,22.42
2017-10-10T11:19:20.813Z,29.95
2017-10-10T11:21:48.410Z,24.77
2017-10-10T11:24:15.944Z,24.58
2017-10-10T11:26:43.568Z,31.80
2017-10-10T11:29:11.146Z,30.95
2017-10-10T11:31:38.722Z,35.67
2017-10-10T11:34:06.350Z,30.70
2017-10-10T11:36:33.972Z,38.97
2017-10-10T11:39:01.549Z,34.08
2017-10-10T11:41:29.930Z,30.58
2017-10-10T11:43:58.311Z,32.75
2017-10-10T11:46:26.694Z,32.58
2017-10-10T11:48:54.311Z,26.12
2017-10-10T11:51:21.928Z,25.42
2017-10-10T11:53:49.598Z,31.98
2017-10-10T11:56:17.214Z,26.27
2017-10-10T11:58:44.833Z,26.17
2017-10-10T12:01:12.422Z,24.98
2017-10-10T12:03:40.042Z,24.80
2017-10-10T12:06:07.649Z,28.08
2017-10-10T12:08:35.271Z,20.95
2017-10-10T12:11:02.889Z,19.73
2017-10-10T12:13:30.463Z,21.05
2017-10-10T12:15:58.804Z,20.67
2017-10-10T12:18:26.424Z,21.00
2017-10-10T12:20:54.020Z,24.45
2017-10-10T12:23:21.639Z,24.85
2017-10-10T12:25:49.251Z,23.42
2017-10-10T12:28:16.918Z,24.92
2017-10-10T12:30:44.498Z,22.48
2017-10-10T12:33:12.124Z,23.30
2017-10-10T12:35:39.737Z,26.15
2017-10-10T12:38:07.358Z,22.50
2017-10-10T12:40:34.970Z,21.73
2017-10-10T12:43:02.594Z,23.90
2017-10-10T12:45:30.220Z,24.98
2017-10-10T12:47:57.793Z,22.80
2017-10-10T12:50:25.414Z,23.77
2017-10-10T12:52:53.030Z,23.95
2017-10-10T12:55:20.742Z,24.95
2017-10-10T12:57:48.365Z,32.65
2017-10-10T13:00:15.983Z,26.05
2017-10-10T13:02:43.574Z,42.13
2017-10-10T13:05:11.152Z,51.90
2017-10-10T13:07:38.775Z,41.75
2017-10-10T13:10:06.350Z,53.03
2017-10-10T13:12:33.988Z,74.43
2017-10-10T13:15:01.603Z,49.55
2017-10-10T13:17:29.986Z,40.42
2017-10-10T13:19:58.436Z,33.05
2017-10-10T13:22:27.144Z,24.98
2017-10-10T13:24:54.768Z,21.05
2017-10-10T13:27:22.347Z,24.55
2017-10-10T13:29:50.044Z,28.33
2017-10-10T13:32:18.448Z,23.83
2017-10-10T13:34:46.197Z,27.35
2017-10-10T13:37:13.908Z,30.65
2017-10-10T13:39:41.543Z,26.60
2017-10-10T13:42:09.193Z,27.13
2017-10-10T13:44:36.765Z,25.67
2017-10-10T13:47:04.395Z,33.97
2017-10-10T13:49:32.786Z,25.02
2017-10-10T13:52:01.362Z,30.80
2017-10-10T13:54:29.799Z,24.55
2017-10-10T13:56:57.683Z,36.08
2017-10-10T13:59:25.318Z,25.73
2017-10-10T14:01:52.954Z,30.37
2017-10-10T14:04:21.509Z,27.40
2017-10-10T14:06:49.915Z,26.20
2017-10-10T14:09:17.489Z,35.33
2017-10-10T14:11:45.102Z,39.88
2017-10-10T14:14:12.676Z,43.00
2017-10-10T14:16:40.313Z,35.85
2017-10-10T14:19:07.958Z,29.87
2017-10-10T14:21:35.553Z,35.40
2017-10-10T14:24:03.938Z,38.05
2017-10-10T14:26:32.335Z,30.52
2017-10-10T14:28:59.991Z,41.80
2017-10-10T14:31:27.569Z,45.17
2017-10-10T14:33:55.158Z,53.20
2017-10-10T14:36:22.781Z,39.70
2017-10-10T14:38:50.459Z,49.70
2017-10-10T14:41:18.288Z,40.03
2017-10-10T14:43:46.075Z,35.30
2017-10-10T14:46:13.664Z,39.78
2017-10-10T14:48:41.241Z,29.67
2017-10-10T14:51:08.858Z,29.05
2017-10-10T14:53:36.525Z,28.12
2017-10-10T14:56:04.204Z,28.90
2017-10-10T14:58:31.813Z,23.38
2017-10-10T15:00:59.436Z,23.33
2017-10-10T15:03:27.058Z,21.35
2017-10-10T15:05:54.691Z,30.90
2017-10-10T15:08:22.326Z,23.35
2017-10-10T15:10:51.156Z,23.58
2017-10-10T15:13:19.550Z,28.75
2017-10-10T15:15:47.156Z,30.73
2017-10-10T15:18:14.736Z,28.20
2017-10-10T15:20:42.309Z,32.88
2017-10-10T15:23:09.943Z,33.75
2017-10-10T15:25:37.557Z,34.83
2017-10-10T15:28:05.186Z,28.70
2017-10-10T15:30:32.806Z,34.08
2017-10-10T15:33:00.393Z,27.85
2017-10-10T15:35:28.054Z,28.30
2017-10-10T15:37:55.752Z,33.58
2017-10-10T15:40:23.405Z,36.67
2017-10-10T15:42:51.795Z,32.40
2017-10-10T15:45:20.171Z,31.58
2017-10-10T15:47:48.537Z,38.92
2017-10-10T15:50:16.303Z,40.97
2017-10-10T15:52:44.727Z,30.27
2017-10-10T15:55:12.378Z,60.75
2017-10-10T15:57:40.066Z,38.50
2017-10-10T16:00:07.695Z,38.08
2017-10-10T16:02:35.431Z,40.70
2017-10-10T16:05:03.047Z,45.60
2017-10-10T16:07:30.640Z,37.28
2017-10-10T16:09:58.268Z,36.58
2017-10-10T16:12:25.886Z,35.58
2017-10-10T16:14:54.264Z,39.97
2017-10-10T16:17:22.651Z,32.20
2017-10-10T16:19:50.266Z,35.95
2017-10-10T16:22:20.923Z,31.58
2017-10-10T16:24:48.508Z,35.05
2017-10-10T16:27:16.133Z,38.15
2017-10-10T16:29:43.754Z,34.88
2017-10-10T16:32:11.594Z,33.88
2017-10-10T16:34:40.090Z,37.63
2017-10-10T16:37:07.696Z,30.48
2017-10-10T16:39:35.323Z,34.40
2017-10-10T16:42:02.942Z,37.63
2017-10-10T16:44:30.572Z,33.20
2017-10-10T16:46:58.186Z,32.97
2017-10-10T16:49:25.766Z,30.02
2017-10-10T16:51:53.345Z,27.25
2017-10-10T16:54:20.966Z,32.38
2017-10-10T16:56:49.354Z,26.05
2017-10-10T16:59:16.934Z,32.85
2017-10-10T17:01:44.567Z,25.65
2017-10-10T17:04:14.658Z,28.98
2017-10-10T17:06:42.287Z,31.55
2017-10-10T17:09:09.903Z,23.50
2017-10-10T17:11:37.491Z,20.23
2017-10-10T17:14:05.222Z,21.42
2017-10-10T17:16:33.611Z,21.95
2017-10-10T17:19:01.900Z,22.52
2017-10-10T17:21:29.598Z,26.95
2017-10-10T17:23:58.386Z,25.23
2017-10-10T17:26:26.002Z,25.15
2017-10-10T17:28:53.687Z,27.30
2017-10-10T17:31:21.310Z,25.08
2017-10-10T17:33:48.897Z,25.05
2017-10-10T17:36:16.528Z,22.67
2017-10-10T17:38:44.154Z,24.50
2017-10-10T17:41:11.771Z,30.00
2017-10-10T17:43:39.386Z,35.13
2017-10-10T17:46:07.005Z,22.80
2017-10-10T17:48:34.840Z,27.27
2017-10-10T17:51:03.153Z,26.52
2017-10-10T17:53:30.948Z,22.25
2017-10-10T17:55:58.575Z,24.33
2017-10-10T17:58:26.211Z,19.33
2017-10-10T18:00:54.605Z,32.00
2017-10-10T18:03:22.230Z,29.45
2017-10-10T18:05:49.842Z,33.47
2017-10-10T18:08:17.461Z,29.75
2017-10-10T18:10:45.074Z,27.27
2017-10-10T18:13:12.738Z,29.75
2017-10-10T18:15:41.152Z,30.45
2017-10-10T18:18:08.866Z,31.25
2017-10-10T18:20:36.482Z,36.38
2017-10-10T18:23:04.366Z,31.45
2017-10-10T18:25:31.981Z,34.20
2017-10-10T18:28:06.111Z,31.23
2017-10-10T18:30:33.737Z,38.47
2017-10-10T18:33:01.370Z,31.27
2017-10-10T18:35:29.130Z,31.35
2017-10-10T18:37:56.745Z,33.15
2017-10-10T18:40:24.354Z,25.23
2017-10-10T18:42:51.965Z,33.90
2017-10-10T18:45:19.578Z,37.05
2017-10-10T18:47:48.011Z,25.25
2017-10-10T18:50:16.249Z,22.58
2017-10-10T18:52:44.120Z,22.80
2017-10-10T18:55:11.820Z,24.48
2017-10-10T18:57:39.408Z,21.37
2017-10-10T19:00:07.018Z,28.77
2017-10-10T19:02:34.626Z,27.65
2017-10-10T19:05:02.210Z,23.87
2017-10-10T19:07:30.503Z,21.27
2017-10-10T19:09:58.143Z,26.08
2017-10-10T19:12:26.538Z,25.10
2017-10-10T19:14:55.066Z,25.75
2017-10-10T19:17:22.737Z,23.75
2017-10-10T19:19:50.810Z,20.27
2017-10-10T19:22:18.421Z,23.58
2017-10-10T19:24:46.003Z,23.87
2017-10-10T19:27:13.683Z,22.13
2017-10-10T19:29:42.958Z,21.98
2017-10-10T19:32:10.602Z,24.87
2017-10-10T19:34:38.177Z,24.23
2017-10-10T19:37:05.808Z,21.33
2017-10-10T19:39:34.208Z,19.23
2017-10-10T19:42:01.839Z,25.40
2017-10-10T19:44:29.463Z,20.95
2017-10-10T19:46:57.073Z,20.65
2017-10-10T19:49:25.450Z,19.95
2017-10-10T19:51:54.589Z,19.83
2017-10-10T19:54:22.204Z,26.58
2017-10-10T19:56:50.595Z,15.82
2017-10-10T19:59:18.974Z,20.45
2017-10-10T20:01:46.607Z,19.42
2017-10-10T20:04:14.232Z,27.48
2017-10-10T20:06:41.862Z,15.60
2017-10-10T20:09:09.483Z,16.15
2017-10-10T20:11:37.113Z,24.98
2017-10-10T20:14:04.733Z,20.12
2017-10-10T20:16:32.366Z,15.20
2017-10-10T20:19:00.803Z,19.15
2017-10-10T20:21:28.382Z,16.33
2017-10-10T20:23:56.001Z,19.87
2017-10-10T20:26:24.402Z,25.27
2017-10-10T20:28:52.019Z,22.25
2017-10-10T20:31:19.650Z,16.75
2017-10-10T20:33:47.282Z,19.17
2017-10-10T20:36:14.910Z,19.35
2017-10-10T20:38:42.649Z,19.02
2017-10-10T20:41:10.274Z,17.10
2017-10-10T20:43:37.890Z,18.70
2017-10-10T20:46:05.520Z,17.67
2017-10-10T20:48:33.134Z,16.60
2017-10-10T20:51:00.747Z,18.25
2017-10-10T20:53:28.371Z,18.33
2017-10-10T20:55:55.986Z,20.33
2017-10-10T20:58:23.561Z,20.02
2017-10-10T21:00:51.173Z,18.90
2017-10-10T21:03:18.787Z,17.95
2017-10-10T21:05:46.427Z,17.77
2017-10-10T21:08:14.054Z,17.75
2017-10-10T21:10:41.686Z,25.10
2017-10-10T21:13:10.068Z,22.55
2017-10-10T21:15:37.682Z,24.33
2017-10-10T21:18:05.254Z,20.48
2017-10-10T21:20:32.906Z,20.40
2017-10-10T21:23:00.492Z,22.62
2017-10-10T21:25:28.105Z,21.77
2017-10-10T21:27:55.719Z,24.92
2017-10-10T21:30:23.296Z,27.27
2017-10-10T21:32:51.633Z,30.65
2017-10-10T21:35:19.214Z,28.00
2017-10-10T21:37:46.837Z,26.52
2017-10-10T21:40:14.447Z,28.48
2017-10-10T21:42:42.102Z,29.00
2017-10-10T21:45:09.723Z,23.90
2017-10-10T21:47:37.342Z,31.10
2017-10-10T21:50:04.957Z,29.23
2017-10-10T21:52:32.649Z,23.80
2017-10-10T21:55:00.262Z,25.85
2017-10-10T21:57:27.841Z,24.60
2017-10-10T21:59:55.450Z,26.10
2017-10-10T22:02:23.836Z,26.30
2017-10-10T22:04:51.418Z,27.90
2017-10-10T22:07:19.025Z,29.27
2017-10-10T22:09:47.720Z,33.50
2017-10-10T22:12:15.298Z,31.00
2017-10-10T22:14:42.924Z,33.03
2017-10-10T22:17:10.539Z,32.42
2017-10-10T22:19:38.298Z,31.95
2017-10-10T22:22:05.866Z,35.72
2017-10-10T22:24:33.447Z,36.47
2017-10-10T22:27:01.070Z,33.78
2017-10-10T22:29:28.648Z,31.17
2017-10-10T22:31:56.263Z,36.83
2017-10-10T22:34:23.879Z,37.97
2017-10-10T22:36:51.490Z,31.83
2017-10-10T22:39:19.113Z,29.17
2017-10-10T22:41:46.735Z,29.70
2017-10-10T22:44:14.332Z,35.67
2017-10-10T22:46:41.943Z,37.13
2017-10-10T22:49:10.300Z,36.53
2017-10-10T22:51:37.911Z,35.90
2017-10-10T22:54:05.502Z,33.63
2017-10-10T22:56:33.126Z,34.88
2017-10-10T22:59:00.737Z,30.98
2017-10-10T23:01:28.343Z,31.27
2017-10-10T23:03:55.962Z,29.05
2017-10-10T23:06:23.574Z,32.88
2017-10-10T23:08:51.186Z,28.65
2017-10-10T23:11:18.842Z,38.03
2017-10-10T23:13:46.467Z,25.62
2017-10-10T23:16:14.154Z,24.83
2017-10-10T23:18:41.777Z,27.87
2017-10-10T23:21:09.397Z,29.20
2017-10-10T23:23:37.013Z,22.55
2017-10-10T23:26:04.669Z,22.20
2017-10-10T23:28:32.287Z,21.23
2017-10-10T23:30:59.895Z,20.23
2017-10-10T23:33:27.513Z,23.25
2017-10-10T23:35:55.085Z,23.00
2017-10-10T23:38:22.695Z,25.02
2017-10-10T23:40:50.264Z,21.60
2017-10-10T23:43:17.875Z,24.75
2017-10-10T23:45:46.257Z,20.80
2017-10-10T23:48:13.876Z,23.05
2017-10-10T23:50:41.487Z,21.02
2017-10-10T23:53:09.113Z,21.77
2017-10-10T23:55:36.726Z,20.77
2017-10-10T23:58:04.302Z,18.58
